createdAt,value
2018-04-22T00:00:02.770Z,17.40
2018-04-22T00:02:06.135Z,17.30
2018-04-22T00:04:10.293Z,17.20
2018-04-22T00:06:13.674Z,17.20
2018-04-22T00:08:17.033Z,17.20
2018-04-22T00:10:20.391Z,17.20
2018-04-22T00:12:23.739Z,17.20
2018-04-22T00:14:27.122Z,17.10
2018-04-22T00:16:31.230Z,17.10
2018-04-22T00:18:35.347Z,17.10
2018-04-22T00:20:38.713Z,17.10
2018-04-22T00:22:42.093Z,17.10
2018-04-22T00:24:45.499Z,17.10
2018-04-22T00:26:48.858Z,17.10
2018-04-22T00:28:52.208Z,17.10
2018-04-22T00:30:55.578Z,17.00
2018-04-22T00:32:59.696Z,17.00
2018-04-22T00:35:03.070Z,16.90
2018-04-22T00:37:06.382Z,17.00
2018-04-22T00:39:09.742Z,16.90
2018-04-22T00:41:13.072Z,16.90
2018-04-22T00:43:16.420Z,16.90
2018-04-22T00:45:19.816Z,16.80
2018-04-22T00:47:23.165Z,16.80
2018-04-22T00:49:26.527Z,16.80
2018-04-22T00:51:29.883Z,16.70
2018-04-22T00:53:45.025Z,16.70
2018-04-22T00:55:48.494Z,16.70
2018-04-22T00:57:52.597Z,16.60
2018-04-22T00:59:55.933Z,16.60
2018-04-22T01:01:59.281Z,16.60
2018-04-22T01:04:03.376Z,16.50
2018-04-22T01:06:06.763Z,16.50
2018-04-22T01:08:10.126Z,16.50
2018-04-22T01:10:13.439Z,16.40
2018-04-22T01:12:16.787Z,16.40
2018-04-22T01:14:20.141Z,16.30
2018-04-22T01:16:23.502Z,16.30
2018-04-22T01:18:26.839Z,16.20
2018-04-22T01:20:30.168Z,16.20
2018-04-22T01:22:33.492Z,16.20
2018-04-22T01:24:36.834Z,16.20
2018-04-22T01:26:40.225Z,16.10
2018-04-22T01:28:43.604Z,16.00
2018-04-22T01:30:46.937Z,16.00
2018-04-22T01:32:50.317Z,15.90
2018-04-22T01:34:53.681Z,15.90
2018-04-22T01:36:57.816Z,15.80
2018-04-22T01:39:01.149Z,15.80
2018-04-22T01:41:05.326Z,15.80
2018-04-22T01:43:08.680Z,15.80
2018-04-22T01:45:12.038Z,15.70
2018-04-22T01:47:15.421Z,15.70
2018-04-22T01:49:18.798Z,15.70
2018-04-22T01:51:22.136Z,15.60
2018-04-22T01:53:25.524Z,15.60
2018-04-22T01:55:28.846Z,15.60
2018-04-22T01:57:32.192Z,15.60
2018-04-22T01:59:35.532Z,15.50
2018-04-22T02:01:38.876Z,15.50
2018-04-22T02:03:43.029Z,15.50
2018-04-22T02:05:46.350Z,15.50
2018-04-22T02:07:49.690Z,15.50
2018-04-22T02:09:53.828Z,15.40
2018-04-22T02:11:57.193Z,15.40
2018-04-22T02:14:01.332Z,15.40
2018-04-22T02:16:04.686Z,15.40
2018-04-22T02:18:08.793Z,15.30
2018-04-22T02:20:12.152Z,15.30
2018-04-22T02:22:15.490Z,15.30
2018-04-22T02:24:19.626Z,15.20
2018-04-22T02:26:22.983Z,15.20
2018-04-22T02:28:27.077Z,15.20
2018-04-22T02:30:30.407Z,15.20
2018-04-22T02:32:33.737Z,15.20
2018-04-22T02:34:37.089Z,15.20
2018-04-22T02:36:40.431Z,15.20
2018-04-22T02:38:43.768Z,15.10
2018-04-22T02:40:47.089Z,15.10
2018-04-22T02:42:50.412Z,15.10
2018-04-22T02:44:53.791Z,15.10
2018-04-22T02:46:57.117Z,15.10
2018-04-22T02:49:00.492Z,15.00
2018-04-22T02:51:04.631Z,15.00
2018-04-22T02:53:07.960Z,14.90
2018-04-22T02:55:11.302Z,14.90
2018-04-22T02:57:15.412Z,14.90
2018-04-22T02:59:19.505Z,14.80
2018-04-22T03:01:23.640Z,14.80
2018-04-22T03:03:26.967Z,14.80
2018-04-22T03:05:30.337Z,14.80
2018-04-22T03:07:33.661Z,14.80
2018-04-22T03:09:37.001Z,14.80
2018-04-22T03:11:40.422Z,14.70
2018-04-22T03:13:44.560Z,14.70
2018-04-22T03:15:47.901Z,14.70
2018-04-22T03:17:51.269Z,14.70
2018-04-22T03:19:54.599Z,14.60
2018-04-22T03:21:57.991Z,14.60
2018-04-22T03:24:01.327Z,14.60
2018-04-22T03:26:04.653Z,14.50
2018-04-22T03:28:08.809Z,14.50
2018-04-22T03:30:12.133Z,14.50
2018-04-22T03:32:16.240Z,14.50
2018-04-22T03:34:19.571Z,14.40
2018-04-22T03:36:22.899Z,14.40
2018-04-22T03:38:26.262Z,14.40
2018-04-22T03:40:29.607Z,14.30
2018-04-22T03:42:33.034Z,14.30
2018-04-22T03:44:36.343Z,14.30
2018-04-22T03:46:39.673Z,14.30
2018-04-22T03:48:43.038Z,14.30
2018-04-22T03:50:47.148Z,14.20
2018-04-22T03:52:50.530Z,14.20
2018-04-22T03:54:53.861Z,14.20
2018-04-22T03:56:57.201Z,14.20
2018-04-22T03:59:00.561Z,14.20
2018-04-22T04:01:04.668Z,14.10
2018-04-22T04:03:08.008Z,14.10
2018-04-22T04:05:11.350Z,14.10
2018-04-22T04:07:15.465Z,14.10
2018-04-22T04:09:19.580Z,14.10
2018-04-22T04:11:23.681Z,14.00
2018-04-22T04:13:27.773Z,14.00
2018-04-22T04:15:31.941Z,13.90
2018-04-22T04:17:35.300Z,14.00
2018-04-22T04:19:50.729Z,14.00
2018-04-22T04:22:06.098Z,13.90
2018-04-22T04:26:58.428Z,13.80
2018-04-22T04:29:01.773Z,13.70
2018-04-22T04:31:05.105Z,13.70
2018-04-22T04:33:08.456Z,13.70
2018-04-22T04:35:12.575Z,13.60
2018-04-22T04:37:15.929Z,13.60
2018-04-22T04:39:19.257Z,13.50
2018-04-22T04:41:23.359Z,13.50
2018-04-22T04:43:26.749Z,13.50
2018-04-22T04:45:30.075Z,13.50
2018-04-22T04:47:33.440Z,13.50
2018-04-22T04:49:38.733Z,13.50
2018-04-22T04:51:42.068Z,13.50
2018-04-22T04:53:45.412Z,13.50
2018-04-22T04:55:48.760Z,13.50
2018-04-22T04:57:52.118Z,13.50
2018-04-22T04:59:56.239Z,13.50
2018-04-22T05:02:00.368Z,13.50
2018-04-22T05:04:04.501Z,13.50
2018-04-22T05:06:07.860Z,13.40
2018-04-22T05:08:11.974Z,13.50
2018-04-22T05:10:16.070Z,13.50
2018-04-22T05:12:20.201Z,13.50
2018-04-22T05:14:24.312Z,13.50
2018-04-22T05:16:27.714Z,13.50
2018-04-22T05:18:31.104Z,13.60
2018-04-22T05:20:34.467Z,13.60
2018-04-22T05:22:38.690Z,13.60
2018-04-22T05:24:42.800Z,13.60
2018-04-22T05:26:47.194Z,13.60
2018-04-22T05:28:50.545Z,13.60
2018-04-22T05:30:53.860Z,13.70
2018-04-22T05:32:58.004Z,13.70
2018-04-22T05:35:02.116Z,13.80
2018-04-22T05:37:06.246Z,13.80
2018-04-22T05:39:09.609Z,13.80
2018-04-22T05:41:12.968Z,13.90
2018-04-22T05:43:16.308Z,13.90
2018-04-22T05:45:19.686Z,14.00
2018-04-22T05:47:23.808Z,14.20
2018-04-22T05:49:27.939Z,14.20
2018-04-22T05:51:31.300Z,14.20
2018-04-22T05:53:35.419Z,14.40
2018-04-22T05:55:38.759Z,14.40
2018-04-22T05:57:42.123Z,14.50
2018-04-22T05:59:45.460Z,14.50
2018-04-22T06:01:48.809Z,14.60
2018-04-22T06:03:52.190Z,14.60
2018-04-22T06:05:55.516Z,14.60
2018-04-22T06:07:58.842Z,14.60
2018-04-22T06:10:02.963Z,14.70
2018-04-22T06:12:06.337Z,14.70
2018-04-22T06:14:10.476Z,14.90
2018-04-22T06:16:13.809Z,14.90
2018-04-22T06:18:17.191Z,15.00
2018-04-22T06:20:20.530Z,15.10
2018-04-22T06:22:23.897Z,15.20
2018-04-22T06:24:27.289Z,15.40
2018-04-22T06:26:30.626Z,15.60
2018-04-22T06:28:33.991Z,15.80
2018-04-22T06:30:37.365Z,15.90
2018-04-22T06:32:40.715Z,16.10
2018-04-22T06:34:44.087Z,16.20
2018-04-22T06:36:47.440Z,16.40
2018-04-22T06:38:50.811Z,16.50
2018-04-22T06:40:54.140Z,16.60
2018-04-22T06:42:57.627Z,16.80
2018-04-22T06:45:01.000Z,16.80
2018-04-22T06:47:04.359Z,16.70
2018-04-22T06:49:07.703Z,16.80
2018-04-22T06:51:11.046Z,17.00
2018-04-22T06:53:14.391Z,17.20
2018-04-22T06:55:18.544Z,17.40
2018-04-22T06:57:21.886Z,17.40
2018-04-22T06:59:25.338Z,17.50
2018-04-22T07:01:28.731Z,17.60
2018-04-22T07:03:32.081Z,17.60
2018-04-22T07:05:35.462Z,17.60
2018-04-22T07:07:38.805Z,17.50
2018-04-22T07:09:42.145Z,17.60
2018-04-22T07:11:46.261Z,17.60
2018-04-22T07:13:49.592Z,17.60
2018-04-22T07:15:52.960Z,17.70
2018-04-22T07:17:56.313Z,17.80
2018-04-22T07:19:59.644Z,18.00
2018-04-22T07:22:03.009Z,18.10
2018-04-22T07:24:06.447Z,18.30
2018-04-22T07:26:09.758Z,18.60
2018-04-22T07:28:13.093Z,19.00
2018-04-22T07:30:17.243Z,19.40
2018-04-22T07:32:20.600Z,19.40
2018-04-22T07:34:24.718Z,19.60
2018-04-22T07:36:28.843Z,19.60
2018-04-22T07:38:33.032Z,19.80
2018-04-22T07:40:37.131Z,20.00
2018-04-22T07:42:40.574Z,20.00
2018-04-22T07:44:44.675Z,20.50
2018-04-22T07:46:48.078Z,20.50
2018-04-22T07:48:51.408Z,20.80
2018-04-22T07:50:54.773Z,21.20
2018-04-22T07:52:58.178Z,21.40
2018-04-22T07:55:01.543Z,21.40
2018-04-22T07:57:04.862Z,21.60
2018-04-22T07:59:09.725Z,21.50
2018-04-22T08:01:13.837Z,21.50
2018-04-22T08:03:17.206Z,21.50
2018-04-22T08:05:20.764Z,21.70
2018-04-22T08:07:24.317Z,21.70
2018-04-22T08:09:27.694Z,22.00
2018-04-22T08:11:31.807Z,22.50
2018-04-22T08:13:35.973Z,22.70
2018-04-22T08:15:39.337Z,22.70
2018-04-22T08:17:42.785Z,23.00
2018-04-22T08:19:46.164Z,23.00
2018-04-22T08:21:49.604Z,23.20
2018-04-22T08:23:53.026Z,23.30
2018-04-22T08:25:56.384Z,23.40
2018-04-22T08:27:59.738Z,23.60
2018-04-22T08:30:03.142Z,23.70
2018-04-22T08:32:06.475Z,23.90
2018-04-22T08:34:09.878Z,24.00
2018-04-22T08:36:13.986Z,24.20
2018-04-22T08:38:17.354Z,24.20
2018-04-22T08:40:20.726Z,24.40
2018-04-22T08:42:24.116Z,24.40
2018-04-22T08:44:28.025Z,24.20
2018-04-22T08:46:31.369Z,24.00
2018-04-22T08:48:34.701Z,23.80
2018-04-22T08:50:38.923Z,23.80
2018-04-22T08:52:43.120Z,24.00
2018-04-22T08:54:47.272Z,24.40
2018-04-22T08:56:50.641Z,24.30
2018-04-22T08:58:54.753Z,24.80
2018-04-22T09:00:58.166Z,24.80
2018-04-22T09:03:03.064Z,25.00
2018-04-22T09:05:07.234Z,25.10
2018-04-22T09:07:10.602Z,25.10
2018-04-22T09:09:13.942Z,25.30
2018-04-22T09:11:17.283Z,25.30
2018-04-22T09:13:20.620Z,25.30
2018-04-22T09:15:24.776Z,25.00
2018-04-22T09:17:28.181Z,25.00
2018-04-22T09:19:31.526Z,25.00
2018-04-22T09:21:34.923Z,24.70
2018-04-22T09:23:39.044Z,24.80
2018-04-22T09:25:42.594Z,24.80
2018-04-22T09:27:45.931Z,25.00
2018-04-22T09:29:50.011Z,25.60
2018-04-22T09:31:54.155Z,25.80
2018-04-22T09:33:57.525Z,25.80
2018-04-22T09:36:00.871Z,25.90
2018-04-22T09:38:04.268Z,25.50
2018-04-22T09:40:08.416Z,25.40
2018-04-22T09:42:11.944Z,25.80
2018-04-22T09:44:15.289Z,26.00
2018-04-22T09:46:18.685Z,26.00
2018-04-22T09:48:22.051Z,26.10
2018-04-22T09:50:25.363Z,26.40
2018-04-22T09:52:28.732Z,26.60
2018-04-22T09:54:32.127Z,26.50
2018-04-22T09:56:35.467Z,26.30
2018-04-22T09:58:39.573Z,26.50
2018-04-22T10:00:43.714Z,26.40
2018-04-22T10:02:48.860Z,26.40
2018-04-22T10:04:52.196Z,26.40
2018-04-22T10:06:56.322Z,26.10
2018-04-22T10:08:59.647Z,26.10
2018-04-22T10:11:02.970Z,26.20
2018-04-22T10:13:06.321Z,26.40
2018-04-22T10:15:09.665Z,26.60
2018-04-22T10:17:13.060Z,27.00
2018-04-22T10:19:16.438Z,26.90
2018-04-22T10:21:19.752Z,26.90
2018-04-22T10:23:23.114Z,27.00
2018-04-22T10:25:26.483Z,26.90
2018-04-22T10:27:29.883Z,27.10
2018-04-22T10:29:33.213Z,27.30
2018-04-22T10:31:36.567Z,27.40
2018-04-22T10:33:39.959Z,27.50
2018-04-22T10:35:43.296Z,27.30
2018-04-22T10:37:46.701Z,27.30
2018-04-22T10:39:50.372Z,27.30
2018-04-22T10:41:53.747Z,27.50
2018-04-22T10:43:57.160Z,27.60
2018-04-22T10:46:00.469Z,27.60
2018-04-22T10:48:03.854Z,27.50
2018-04-22T10:50:07.172Z,27.40
2018-04-22T10:52:10.629Z,27.40
2018-04-22T10:54:14.035Z,27.40
2018-04-22T10:56:18.311Z,27.60
2018-04-22T10:58:21.704Z,27.90
2018-04-22T11:00:25.175Z,28.00
2018-04-22T11:02:28.619Z,27.90
2018-04-22T11:04:32.825Z,28.10
2018-04-22T11:06:36.125Z,28.10
2018-04-22T11:08:39.540Z,28.10
2018-04-22T11:10:43.731Z,28.40
2018-04-22T11:12:47.869Z,28.60
2018-04-22T11:14:51.248Z,28.60
2018-04-22T11:16:55.411Z,28.60
2018-04-22T11:18:58.773Z,28.60
2018-04-22T11:21:02.124Z,28.80
2018-04-22T11:23:05.445Z,28.90
2018-04-22T11:25:08.813Z,28.90
2018-04-22T11:27:12.164Z,29.10
2018-04-22T11:29:15.475Z,29.30
2018-04-22T11:31:18.927Z,29.50
2018-04-22T11:33:22.281Z,29.50
2018-04-22T11:35:26.420Z,29.70
2018-04-22T11:37:29.808Z,29.70
2018-04-22T11:39:33.147Z,29.80
2018-04-22T11:41:36.594Z,29.90
2018-04-22T11:43:39.964Z,29.60
2018-04-22T11:45:43.326Z,29.40
2018-04-22T11:47:46.693Z,29.40
2018-04-22T11:49:50.051Z,29.40
2018-04-22T11:51:53.468Z,29.20
2018-04-22T11:53:56.827Z,28.90
2018-04-22T11:56:00.198Z,28.70
2018-04-22T11:58:04.411Z,28.30
2018-04-22T12:00:07.761Z,28.30
2018-04-22T12:02:11.119Z,28.30
2018-04-22T12:04:15.318Z,28.80
2018-04-22T12:06:18.629Z,28.80
2018-04-22T12:08:21.994Z,28.90
2018-04-22T12:10:25.853Z,28.90
2018-04-22T12:12:29.229Z,28.90
2018-04-22T12:14:32.664Z,29.00
2018-04-22T12:16:36.033Z,29.10
2018-04-22T12:18:39.366Z,29.10
2018-04-22T12:20:43.796Z,28.90
2018-04-22T12:22:47.210Z,28.70
2018-04-22T12:24:50.895Z,28.80
2018-04-22T12:26:55.164Z,28.90
2018-04-22T12:28:58.559Z,28.90
2018-04-22T12:31:02.046Z,28.90
2018-04-22T12:33:05.455Z,28.90
2018-04-22T12:35:08.825Z,29.00
2018-04-22T12:37:12.190Z,29.10
2018-04-22T12:39:15.562Z,29.00
2018-04-22T12:41:18.922Z,28.90
2018-04-22T12:43:22.350Z,29.10
2018-04-22T12:45:26.440Z,28.90
2018-04-22T12:47:30.559Z,28.90
2018-04-22T12:49:34.863Z,28.90
2018-04-22T12:51:38.174Z,28.80
2018-04-22T12:53:42.319Z,28.80
2018-04-22T12:55:45.669Z,28.80
2018-04-22T12:57:49.031Z,28.70
2018-04-22T12:59:52.352Z,28.70
2018-04-22T13:01:55.683Z,28.80
2018-04-22T13:03:59.066Z,29.00
2018-04-22T13:06:02.433Z,29.20
2018-04-22T13:08:05.747Z,29.30
2018-04-22T13:10:09.167Z,29.20
2018-04-22T13:12:12.520Z,29.30
2018-04-22T13:14:15.965Z,29.30
2018-04-22T13:16:19.562Z,29.30
2018-04-22T13:18:22.932Z,29.30
2018-04-22T13:20:26.298Z,29.30
2018-04-22T13:22:31.380Z,29.20
2018-04-22T13:24:34.740Z,29.20
2018-04-22T13:26:38.099Z,29.00
2018-04-22T13:28:42.249Z,28.80
2018-04-22T13:30:46.463Z,28.90
2018-04-22T13:32:49.797Z,28.80
2018-04-22T13:34:53.755Z,29.00
2018-04-22T13:36:57.097Z,28.90
2018-04-22T13:39:00.452Z,28.80
2018-04-22T13:41:03.892Z,28.70
2018-04-22T13:43:08.011Z,28.60
2018-04-22T13:45:12.974Z,28.60
2018-04-22T13:47:16.346Z,28.60
2018-04-22T13:49:19.711Z,28.70
2018-04-22T13:51:23.859Z,28.90
2018-04-22T13:53:27.951Z,29.00
2018-04-22T13:55:31.288Z,29.00
2018-04-22T13:57:34.681Z,29.00
2018-04-22T13:59:38.005Z,29.00
2018-04-22T14:01:41.371Z,28.90
2018-04-22T14:03:45.665Z,28.80
2018-04-22T14:05:49.693Z,28.80
2018-04-22T14:07:53.043Z,28.80
2018-04-22T14:09:56.430Z,28.80
2018-04-22T14:11:59.791Z,28.80
2018-04-22T14:14:04.580Z,28.30
2018-04-22T14:16:08.772Z,28.30
2018-04-22T14:18:12.241Z,28.20
2018-04-22T14:20:15.646Z,28.20
2018-04-22T14:22:19.890Z,28.10
2018-04-22T14:24:23.283Z,28.00
2018-04-22T14:26:26.795Z,28.00
2018-04-22T14:28:30.195Z,28.20
2018-04-22T14:30:33.547Z,28.20
2018-04-22T14:32:37.743Z,28.10
2018-04-22T14:34:42.066Z,28.10
2018-04-22T14:36:45.390Z,28.20
2018-04-22T14:38:48.811Z,28.10
2018-04-22T14:40:53.088Z,27.90
2018-04-22T14:42:57.184Z,27.80
2018-04-22T14:45:12.380Z,28.00
2018-04-22T14:47:15.740Z,28.00
2018-04-22T14:49:19.071Z,27.90
2018-04-22T14:51:23.189Z,27.70
2018-04-22T14:53:27.402Z,27.70
2018-04-22T14:55:31.517Z,27.80
2018-04-22T14:57:35.635Z,27.90
2018-04-22T14:59:38.996Z,27.90
2018-04-22T15:01:43.108Z,27.90
2018-04-22T15:03:46.574Z,27.90
2018-04-22T15:05:50.152Z,27.80
2018-04-22T15:07:53.532Z,27.50
2018-04-22T15:09:57.014Z,27.50
2018-04-22T15:12:01.298Z,27.30
2018-04-22T15:14:04.819Z,27.30
2018-04-22T15:16:09.588Z,27.30
2018-04-22T15:18:12.937Z,27.30
2018-04-22T15:20:17.056Z,27.10
2018-04-22T15:22:20.447Z,27.10
2018-04-22T15:24:23.865Z,27.00
2018-04-22T15:26:27.384Z,27.00
2018-04-22T15:28:32.170Z,27.10
2018-04-22T15:30:35.540Z,27.10
2018-04-22T15:32:38.884Z,27.10
2018-04-22T15:34:42.862Z,27.10
2018-04-22T15:36:46.272Z,27.10
2018-04-22T15:38:50.621Z,27.20
2018-04-22T15:40:55.637Z,27.10
2018-04-22T15:42:59.086Z,27.10
2018-04-22T15:45:02.484Z,27.10
2018-04-22T15:47:05.845Z,27.10
2018-04-22T15:49:10.051Z,26.90
2018-04-22T15:51:14.193Z,26.80
2018-04-22T15:53:17.664Z,26.80
2018-04-22T15:55:21.154Z,26.80
2018-04-22T15:57:24.563Z,26.80
2018-04-22T15:59:27.947Z,26.80
2018-04-22T16:01:32.129Z,26.80
2018-04-22T16:03:35.497Z,26.80
2018-04-22T16:05:39.213Z,26.80
2018-04-22T16:07:42.599Z,26.60
2018-04-22T16:09:45.938Z,26.50
2018-04-22T16:11:49.330Z,26.40
2018-04-22T16:13:53.854Z,26.40
2018-04-22T16:15:57.291Z,26.40
2018-04-22T16:18:01.670Z,26.40
2018-04-22T16:20:05.005Z,26.40
2018-04-22T16:22:08.413Z,26.40
2018-04-22T16:24:12.385Z,26.30
2018-04-22T16:26:15.702Z,26.30
2018-04-22T16:28:19.061Z,26.40
2018-04-22T16:30:22.416Z,26.40
2018-04-22T16:32:27.372Z,26.40
2018-04-22T16:34:30.724Z,26.30
2018-04-22T16:36:34.029Z,26.30
2018-04-22T16:38:37.473Z,26.30
2018-04-22T16:40:40.801Z,26.20
2018-04-22T16:42:44.117Z,26.00
2018-04-22T16:44:48.337Z,26.00
2018-04-22T16:46:51.715Z,26.00
2018-04-22T16:48:55.860Z,25.80
2018-04-22T16:50:59.253Z,25.80
2018-04-22T16:53:03.444Z,25.70
2018-04-22T16:55:07.167Z,25.70
2018-04-22T16:57:10.676Z,25.70
2018-04-22T16:59:14.274Z,25.60
2018-04-22T17:01:17.703Z,25.50
2018-04-22T17:03:21.547Z,25.50
2018-04-22T17:05:25.087Z,25.40
2018-04-22T17:07:30.028Z,25.30
2018-04-22T17:09:34.402Z,25.10
2018-04-22T17:11:37.841Z,25.10
2018-04-22T17:13:42.098Z,25.10
2018-04-22T17:15:45.511Z,25.00
2018-04-22T17:17:48.932Z,25.10
2018-04-22T17:19:52.333Z,25.00
2018-04-22T17:21:56.665Z,24.90
2018-04-22T17:24:00.388Z,24.90
2018-04-22T17:26:03.782Z,24.90
2018-04-22T17:28:09.066Z,24.90
2018-04-22T17:30:13.230Z,24.80
2018-04-22T17:32:16.726Z,24.80
2018-04-22T17:34:20.847Z,24.80
2018-04-22T17:36:25.539Z,24.70
2018-04-22T17:38:28.982Z,24.80
2018-04-22T17:40:32.446Z,24.80
2018-04-22T17:42:37.186Z,24.70
2018-04-22T17:44:40.647Z,24.60
2018-04-22T17:46:44.557Z,24.60
2018-04-22T17:48:49.705Z,24.50
2018-04-22T17:50:53.984Z,24.50
2018-04-22T17:52:57.377Z,24.40
2018-04-22T17:55:02.430Z,24.40
2018-04-22T17:57:06.944Z,24.30
2018-04-22T17:59:10.302Z,24.40
2018-04-22T18:01:15.246Z,24.20
2018-04-22T18:03:19.345Z,24.20
2018-04-22T18:05:22.720Z,24.20
2018-04-22T18:07:26.652Z,24.20
2018-04-22T18:09:29.996Z,24.10
2018-04-22T18:11:33.354Z,24.00
2018-04-22T18:13:37.238Z,24.00
2018-04-22T18:15:41.684Z,23.80
2018-04-22T18:17:45.127Z,23.90
2018-04-22T18:19:48.497Z,23.80
2018-04-22T18:21:53.411Z,23.70
2018-04-22T18:23:57.647Z,23.70
2018-04-22T18:26:01.129Z,23.70
2018-04-22T18:28:05.693Z,23.50
2018-04-22T18:30:10.227Z,23.60
2018-04-22T18:32:13.882Z,23.50
2018-04-22T18:34:17.337Z,23.50
2018-04-22T18:36:21.566Z,23.40
2018-04-22T18:38:24.924Z,23.40
2018-04-22T18:40:28.374Z,23.40
2018-04-22T18:42:32.928Z,23.30
2018-04-22T18:44:37.206Z,23.30
2018-04-22T18:46:40.617Z,23.30
2018-04-22T18:48:43.965Z,23.30
2018-04-22T18:50:48.181Z,23.20
2018-04-22T18:52:52.039Z,23.20
2018-04-22T18:54:55.516Z,23.10
2018-04-22T18:56:59.710Z,22.90
2018-04-22T18:59:04.003Z,22.90
2018-04-22T19:01:08.600Z,22.90
2018-04-22T19:03:11.989Z,22.90
2018-04-22T19:05:15.341Z,22.80
2018-04-22T19:07:19.944Z,22.70
2018-04-22T19:09:23.350Z,22.60
2018-04-22T19:11:26.694Z,22.60
2018-04-22T19:13:30.102Z,22.50
2018-04-22T19:15:33.459Z,22.50
2018-04-22T19:17:37.712Z,22.50
2018-04-22T19:19:41.088Z,22.50
2018-04-22T19:21:44.408Z,22.40
2018-04-22T19:23:47.741Z,22.50
2018-04-22T19:25:51.091Z,22.40
2018-04-22T19:27:54.477Z,22.40
2018-04-22T19:29:57.899Z,22.30
2018-04-22T19:32:01.362Z,22.30
2018-04-22T19:34:04.717Z,22.30
2018-04-22T19:36:08.090Z,22.30
2018-04-22T19:38:11.405Z,22.20
2018-04-22T19:40:15.680Z,22.10
2018-04-22T19:42:19.253Z,22.10
2018-04-22T19:44:22.651Z,22.00
2018-04-22T19:46:27.684Z,22.00
2018-04-22T19:48:31.815Z,22.00
2018-04-22T19:50:35.282Z,22.00
2018-04-22T19:52:39.098Z,21.90
2018-04-22T19:54:43.468Z,21.90
2018-04-22T19:56:46.949Z,21.90
2018-04-22T19:58:50.371Z,22.00
2018-04-22T20:00:54.514Z,21.90
2018-04-22T20:02:58.274Z,21.80
2018-04-22T20:05:02.597Z,21.70
2018-04-22T20:07:05.912Z,21.80
2018-04-22T20:09:09.642Z,21.70
2018-04-22T20:11:13.097Z,21.60
2018-04-22T20:13:16.845Z,21.60
2018-04-22T20:15:20.985Z,21.60
2018-04-22T20:17:25.265Z,21.60
2018-04-22T20:19:29.317Z,21.60
2018-04-22T20:21:32.941Z,21.60
2018-04-22T20:23:37.070Z,21.50
2018-04-22T20:25:41.195Z,21.50
2018-04-22T20:27:45.120Z,21.50
2018-04-22T20:29:48.600Z,21.50
2018-04-22T20:31:52.000Z,21.40
2018-04-22T20:33:55.406Z,21.40
2018-04-22T20:35:58.782Z,21.40
2018-04-22T20:38:02.207Z,21.40
2018-04-22T20:40:05.568Z,21.30
2018-04-22T20:42:08.893Z,21.30
2018-04-22T20:44:12.256Z,21.20
2018-04-22T20:46:16.620Z,21.20
2018-04-22T20:48:20.777Z,21.20
2018-04-22T20:50:24.355Z,21.20
2018-04-22T20:52:28.071Z,21.20
2018-04-22T20:54:31.590Z,21.20
2018-04-22T20:56:34.910Z,21.20
2018-04-22T20:58:38.369Z,21.20
2018-04-22T21:00:41.728Z,21.10
2018-04-22T21:02:45.886Z,21.10
2018-04-22T21:04:49.222Z,21.10
2018-04-22T21:06:52.626Z,21.10
2018-04-22T21:08:56.049Z,21.00
2018-04-22T21:10:59.405Z,20.90
2018-04-22T21:13:02.827Z,20.90
2018-04-22T21:15:06.976Z,20.80
2018-04-22T21:17:11.157Z,20.80
2018-04-22T21:19:15.463Z,20.60
2018-04-22T21:21:18.855Z,20.60
2018-04-22T21:23:22.197Z,20.60
2018-04-22T21:25:26.307Z,20.50
2018-04-22T21:27:29.673Z,20.50
2018-04-22T21:29:33.045Z,20.40
2018-04-22T21:31:36.434Z,20.30
2018-04-22T21:33:39.932Z,20.30
2018-04-22T21:35:43.439Z,20.20
2018-04-22T21:37:46.773Z,20.10
2018-04-22T21:39:50.149Z,20.10
2018-04-22T21:41:53.515Z,20.10
2018-04-22T21:43:56.832Z,20.00
2018-04-22T21:46:00.960Z,19.90
2018-04-22T21:48:05.431Z,19.80
2018-04-22T21:50:08.843Z,19.80
2018-04-22T21:52:13.120Z,19.80
2018-04-22T21:54:17.363Z,19.70
2018-04-22T21:56:21.581Z,19.70
2018-04-22T21:58:25.745Z,19.60
2018-04-22T22:00:29.124Z,19.60
2018-04-22T22:02:32.489Z,19.60
2018-04-22T22:04:35.858Z,19.60
2018-04-22T22:06:39.277Z,19.50
2018-04-22T22:08:43.409Z,19.40
2018-04-22T22:10:46.775Z,19.40
2018-04-22T22:12:50.116Z,19.40
2018-04-22T22:14:54.306Z,19.30
2018-04-22T22:16:58.417Z,19.30
2018-04-22T22:19:01.757Z,19.30
2018-04-22T22:21:05.176Z,19.30
2018-04-22T22:23:09.299Z,19.20
2018-04-22T22:25:12.652Z,19.20
2018-04-22T22:27:16.032Z,19.20
2018-04-22T22:29:19.395Z,19.10
2018-04-22T22:31:22.758Z,19.10
2018-04-22T22:33:26.845Z,19.00
2018-04-22T22:35:31.032Z,19.00
2018-04-22T22:37:34.348Z,18.90
2018-04-22T22:39:37.716Z,18.90
2018-04-22T22:41:41.061Z,18.90
2018-04-22T22:43:44.401Z,18.80
2018-04-22T22:45:47.827Z,18.80
2018-04-22T22:47:51.204Z,18.80
2018-04-22T22:49:54.584Z,18.70
2018-04-22T22:51:58.650Z,18.70
2018-04-22T22:54:02.036Z,18.60
2018-04-22T22:56:05.424Z,18.60
2018-04-22T22:58:08.790Z,18.60
2018-04-22T23:00:12.903Z,18.60
2018-04-22T23:02:15.992Z,18.60
2018-04-22T23:04:19.398Z,18.60
2018-04-22T23:06:22.740Z,18.50
2018-04-22T23:08:26.063Z,18.50
2018-04-22T23:10:29.422Z,18.50
2018-04-22T23:12:33.564Z,18.50
2018-04-22T23:14:37.714Z,18.50
2018-04-22T23:16:41.806Z,18.50
2018-04-22T23:18:45.157Z,18.40
2018-04-22T23:20:48.491Z,18.50
2018-04-22T23:22:51.819Z,18.40
2018-04-22T23:24:55.133Z,18.40
2018-04-22T23:26:58.472Z,18.40
2018-04-22T23:29:01.794Z,18.40
2018-04-22T23:31:05.154Z,18.40
2018-04-22T23:33:08.492Z,18.30
2018-04-22T23:35:11.817Z,18.30
2018-04-22T23:37:15.896Z,18.20
2018-04-22T23:39:19.217Z,18.20
2018-04-22T23:41:22.575Z,18.20
2018-04-22T23:43:25.911Z,18.10
2018-04-22T23:45:29.242Z,18.10
2018-04-22T23:47:32.586Z,18.00
2018-04-22T23:49:35.926Z,18.00
2018-04-22T23:51:39.270Z,18.00
2018-04-22T23:53:42.579Z,17.90
2018-04-22T23:55:45.889Z,17.90
2018-04-22T23:57:49.265Z,17.90
2018-04-22T23:59:52.572Z,17.90
